Terminal Aerodrome Forecast
Issued by NWS Spokane, WA

Home | Current Version | Previous Version | Text Only | Print | Product List | Glossary On
Versions: 1 2 3 4 5 6 7 8 9 10 11 12 13 14 15 16 17 18 19 20 21 22 23 24 25 26 27
183
FTUS46 KOTX 121725
TAFLWS
TAF
KLWS 121725Z 1218/1318 12005KT P6SM SCT070 BKN090
     FM130400 20007KT 6SM -SHRA BR BKN035 OVC060
     FM130800 23012G18KT P6SM SCT035 BKN060=

USA.gov is the U.S. government's official web portal to all federal, state and local government web resources and services.